Time;durP1;ratioP1;P1;durP2;ratioP2;P2;SDS_P1;SDS_P2;PMS_P1;PMS_P2;Temp;Humidity;BMP_temperature;BMP_pressure;BME280_temperature;BME280_humidity;BME280_pressure;Samples;Min_cycle;Max_cycle;Signal;HPM_P1;HPM_P2
2023/07/05 00:00:41;;;;;;;10.40;8.90;;;;;;;20.83;67.84;100727.37;1736974;82;22250;-54
2023/07/05 00:03:47;;;;;;;11.65;8.95;;;;;;;20.79;67.89;100723.90;1736649;82;21732;-54
2023/07/05 00:06:53;;;;;;;11.25;8.83;;;;;;;20.75;67.94;100726.33;1736708;82;21251;-54
2023/07/05 00:10:00;;;;;;;11.73;9.23;;;;;;;20.71;68.03;100722.82;1736775;82;21195;-54
2023/07/05 00:13:07;;;;;;;10.58;8.90;;;;;;;20.68;68.07;100719.12;1736829;81;21223;-54
2023/07/05 00:16:14;;;;;;;13.45;9.28;;;;;;;20.65;68.17;100720.98;1736736;81;21811;-55
2023/07/05 00:19:20;;;;;;;14.95;8.83;;;;;;;20.61;68.25;100718.37;1720280;81;21873;-53
2023/07/05 00:22:26;;;;;;;11.25;8.83;;;;;;;20.57;68.33;100719.90;1736691;82;21859;-55
2023/07/05 00:25:33;;;;;;;10.32;8.70;;;;;;;20.54;68.46;100724.54;1736661;82;21200;-54
2023/07/05 00:28:39;;;;;;;13.98;9.03;;;;;;;20.52;68.54;100730.34;1736744;82;21199;-53
2023/07/05 00:31:44;;;;;;;13.83;9.00;;;;;;;20.49;68.64;100729.41;1736707;82;21180;-54
2023/07/05 00:34:51;;;;;;;13.58;9.28;;;;;;;20.47;68.69;100725.18;1736907;82;21214;-54
2023/07/05 00:37:57;;;;;;;11.28;8.78;;;;;;;20.45;68.81;100730.11;1742543;78;21291;-54
2023/07/05 00:41:03;;;;;;;13.70;8.53;;;;;;;20.42;68.88;100719.45;1770562;81;21248;-54
2023/07/05 00:44:10;;;;;;;12.07;9.08;;;;;;;20.40;68.94;100721.61;1770609;81;21260;-54
2023/07/05 00:47:25;;;;;;;12.98;8.70;;;;;;;20.38;69.03;100727.94;1770533;81;21764;-54
2023/07/05 00:50:36;;;;;;;13.30;8.25;;;;;;;20.36;69.15;100723.17;1770745;80;21228;-54
2023/07/05 00:53:43;;;;;;;15.75;9.50;;;;;;;20.35;69.23;100725.63;1770647;80;21188;-54
2023/07/05 00:57:10;;;;;;;11.88;8.93;;;;;;;20.32;69.28;100729.72;1770382;81;21729;-53
2023/07/05 01:00:22;;;;;;;11.85;9.15;;;;;;;20.30;69.37;100731.87;1770416;81;21216;-54
2023/07/05 01:03:28;;;;;;;9.98;8.88;;;;;;;20.29;69.49;100737.14;1770611;81;21260;-54
2023/07/05 01:06:35;;;;;;;16.23;8.58;;;;;;;20.30;69.57;100736.58;1770462;81;21709;-55
2023/07/05 01:09:40;;;;;;;15.40;9.20;;;;;;;20.30;69.68;100731.87;1770400;81;21204;-54
2023/07/05 01:12:53;;;;;;;13.88;10.78;;;;;;;20.33;69.77;100731.95;1770604;80;21761;-54
2023/07/05 01:16:19;;;;;;;13.53;10.00;;;;;;;20.34;69.87;100720.59;1770506;81;21228;-54
2023/07/05 01:19:30;;;;;;;13.25;9.58;;;;;;;20.34;69.92;100721.15;1770535;81;21745;-54
2023/07/05 01:22:55;;;;;;;11.30;8.95;;;;;;;20.37;70.10;100727.64;1770641;81;21539;-54
2023/07/05 01:26:15;;;;;;;11.83;9.55;;;;;;;20.38;70.10;100731.58;1770855;80;21187;-53
2023/07/05 01:29:55;;;;;;;12.10;9.93;;;;;;;20.37;70.10;100727.64;1771261;80;21259;-53
2023/07/05 01:33:24;;;;;;;13.90;9.38;;;;;;;20.31;70.08;100725.23;1770683;81;21197;-53
2023/07/05 01:36:30;;;;;;;12.80;9.68;;;;;;;20.28;70.14;100729.86;1770546;80;21267;-54
2023/07/05 01:39:36;;;;;;;12.53;9.25;;;;;;;20.23;70.19;100723.30;1770561;78;21198;-53
2023/07/05 01:42:43;;;;;;;11.05;9.40;;;;;;;20.20;70.27;100731.55;1770659;80;21449;-54
2023/07/05 01:46:19;;;;;;;12.55;9.48;;;;;;;20.18;70.33;100727.31;1770699;81;21228;-54
2023/07/05 01:49:43;;;;;;;14.07;9.80;;;;;;;20.15;70.41;100728.59;1770029;80;21243;-54
2023/07/05 01:52:53;;;;;;;14.05;10.53;;;;;;;20.13;70.50;100738.23;1770699;80;21335;-55
2023/07/05 01:56:12;;;;;;;13.03;9.80;;;;;;;20.12;70.62;100730.42;1770565;80;21371;-54
2023/07/05 01:59:18;;;;;;;13.35;9.73;;;;;;;20.12;70.70;100722.64;1770476;81;21188;-54
2023/07/05 02:02:25;;;;;;;12.18;10.00;;;;;;;20.12;70.86;100722.64;1770725;80;21239;-53
2023/07/05 02:05:32;;;;;;;18.95;10.20;;;;;;;20.15;71.00;100722.22;1770493;80;21365;-53
2023/07/05 02:08:42;;;;;;;12.75;10.15;;;;;;;20.16;70.95;100723.91;1770602;80;21228;-53
2023/07/05 02:11:48;;;;;;;13.53;10.28;;;;;;;20.17;70.98;100722.84;1763856;80;21772;-53
2023/07/05 02:14:56;;;;;;;15.20;10.03;;;;;;;20.18;71.04;100726.78;1770129;80;21750;-53
2023/07/05 02:18:03;;;;;;;16.02;9.75;;;;;;;20.17;71.09;100730.62;1770811;80;21740;-53
2023/07/05 02:21:02;;;;;;;12.20;10.50;;;;;;;20.19;71.15;100731.78;1771579;80;21338;-54
2023/07/05 02:23:56;;;;;;;13.40;10.25;;;;;;;20.19;71.19;100729.00;1770193;80;21208;-53
2023/07/05 02:27:03;;;;;;;12.95;10.30;;;;;;;20.20;71.26;100730.16;1770274;80;21338;-54
2023/07/05 02:30:13;;;;;;;14.00;10.18;;;;;;;20.22;71.28;100722.98;1771098;80;21212;-54
2023/07/05 02:33:19;;;;;;;12.18;10.20;;;;;;;20.24;71.37;100718.91;1770843;79;21239;-54
2023/07/05 02:36:24;;;;;;;17.12;10.63;;;;;;;20.26;71.48;100710.33;1770411;80;21185;-55
2023/07/05 02:39:30;;;;;;;13.20;10.55;;;;;;;20.31;71.61;100714.66;1763725;80;21358;-54
2023/07/05 02:42:35;;;;;;;13.48;10.90;;;;;;;20.33;71.61;100716.65;1761821;81;21409;-54
2023/07/05 02:45:43;;;;;;;12.85;9.93;;;;;;;20.32;71.53;100708.88;1761906;81;21374;-53
2023/07/05 02:48:50;;;;;;;13.03;10.03;;;;;;;20.33;71.61;100716.65;1744953;81;21358;-54
2023/07/05 02:51:58;;;;;;;12.85;10.43;;;;;;;20.35;71.64;100714.50;1762035;80;21350;-54
2023/07/05 02:55:05;;;;;;;18.00;10.68;;;;;;;20.38;71.70;100714.89;1762206;81;21374;-53
2023/07/05 02:58:11;;;;;;;14.75;10.90;;;;;;;20.46;71.85;100706.23;1761821;81;21537;-54
2023/07/05 03:01:19;;;;;;;14.95;10.98;;;;;;;20.51;71.89;100705.53;1761904;81;21395;-53
2023/07/05 03:04:27;;;;;;;14.55;11.22;;;;;;;20.55;71.82;100702.05;1725441;83;21220;-53
2023/07/05 03:07:34;;;;;;;18.10;11.93;;;;;;;20.57;71.85;100705.45;1704724;84;21721;-54
2023/07/05 03:10:40;;;;;;;19.00;12.18;;;;;;;20.64;71.98;100705.38;1765042;81;21394;-53
2023/07/05 03:13:47;;;;;;;16.87;12.50;;;;;;;20.71;72.13;100706.12;1761794;80;21351;-54
2023/07/05 03:16:47;;;;;;;18.15;13.70;;;;;;;20.79;72.24;100705.81;1761908;81;21343;-54
2023/07/05 03:19:56;;;;;;;20.25;14.58;;;;;;;20.87;72.33;100707.44;1761829;81;21354;-53
2023/07/05 03:23:02;;;;;;;17.05;14.93;;;;;;;20.95;72.46;100701.55;1726692;82;21233;-53
2023/07/05 03:26:11;;;;;;;18.65;15.78;;;;;;;21.03;72.52;100706.27;1704715;84;21767;-53
2023/07/05 03:29:17;;;;;;;19.02;14.53;;;;;;;21.10;72.52;100705.64;1761815;80;21366;-54
2023/07/05 03:32:22;;;;;;;20.40;15.40;;;;;;;21.17;72.59;100700.80;1761910;81;21358;-53
2023/07/05 03:35:29;;;;;;;21.52;16.48;;;;;;;21.28;72.72;100704.73;1761814;81;21354;-52
2023/07/05 03:38:37;;;;;;;21.70;17.70;;;;;;;21.37;72.83;100695.80;1725395;83;21224;-52
2023/07/05 03:41:44;;;;;;;20.77;18.40;;;;;;;21.44;72.86;100704.88;1710879;80;21224;-53
2023/07/05 03:44:52;;;;;;;22.22;18.17;;;;;;;21.52;72.95;100701.75;1726647;83;21276;-53
2023/07/05 03:47:59;;;;;;;20.82;17.95;;;;;;;21.61;72.96;100710.63;1726658;83;21220;-53
2023/07/05 03:51:06;;;;;;;23.20;19.92;;;;;;;21.67;73.03;100711.91;1726490;83;21620;-50
2023/07/05 03:54:12;;;;;;;22.65;19.82;;;;;;;21.76;73.16;100713.28;1726551;83;21220;-53
2023/07/05 03:57:18;;;;;;;26.20;22.35;;;;;;;21.84;73.25;100708.75;1726494;83;21253;-51
2023/07/05 04:00:25;;;;;;;22.82;20.37;;;;;;;21.93;73.30;100711.47;1726478;83;21228;-53
2023/07/05 04:03:31;;;;;;;28.57;20.50;;;;;;;22.01;73.39;100707.46;1726556;83;21213;-52
2023/07/05 04:06:39;;;;;;;25.35;21.52;;;;;;;22.12;73.53;100713.05;1726523;83;21197;-51
2023/07/05 04:09:46;;;;;;;23.83;21.17;;;;;;;22.26;73.66;100714.20;1726513;82;21702;-52
2023/07/05 04:12:53;;;;;;;26.65;21.55;;;;;;;22.40;73.74;100710.05;1726678;82;21244;-52
2023/07/05 04:16:14;;;;;;;22.75;19.20;;;;;;;22.54;73.78;100701.75;1726499;83;21730;-54
2023/07/05 04:19:20;;;;;;;25.30;19.35;;;;;;;22.65;73.78;100703.12;1726605;82;21287;-53
2023/07/05 04:22:25;;;;;;;21.57;19.35;;;;;;;22.77;73.80;100700.31;1718821;83;21432;-54
2023/07/05 04:25:31;;;;;;;22.52;18.90;;;;;;;22.89;73.85;100694.13;1718466;83;21772;-53
2023/07/05 04:28:36;;;;;;;22.60;19.57;;;;;;;23.01;73.89;100696.31;1718578;83;21215;-52
2023/07/05 04:31:41;;;;;;;21.90;19.57;;;;;;;23.10;73.85;100699.02;1718937;83;21369;-53
2023/07/05 04:34:48;;;;;;;24.18;20.50;;;;;;;23.14;73.82;100700.20;1719043;83;21369;-54
2023/07/05 04:37:54;;;;;;;27.42;20.68;;;;;;;23.16;73.74;100707.26;1719036;83;21357;-54
2023/07/05 04:40:59;;;;;;;24.82;21.33;;;;;;;23.22;73.82;100707.64;1718944;82;21210;-54
2023/07/05 04:44:06;;;;;;;27.62;23.32;;;;;;;23.31;73.91;100703.38;1727570;80;21281;-53
2023/07/05 04:47:13;;;;;;;29.65;24.07;;;;;;;23.38;73.94;100701.82;1718255;83;21669;-55
2023/07/05 04:50:19;;;;;;;25.10;21.95;;;;;;;23.46;74.01;100706.45;1718526;83;22086;-54
2023/07/05 04:53:25;;;;;;;27.25;20.75;;;;;;;23.55;74.09;100703.54;1718658;83;21321;-55
2023/07/05 04:56:31;;;;;;;24.50;19.67;;;;;;;23.68;74.16;100700.96;1718737;83;21217;-53
2023/07/05 04:59:43;;;;;;;29.60;19.23;;;;;;;23.83;74.29;100707.37;1718802;83;21277;-51
2023/07/05 05:02:46;;;;;;;21.77;16.90;;;;;;;23.97;74.36;100711.00;1717890;83;21249;-51
2023/07/05 05:05:54;;;;;;;19.52;17.40;;;;;;;24.12;74.36;100711.22;1717932;82;21611;-53
2023/07/05 05:09:01;;;;;;;21.35;17.82;;;;;;;24.22;74.29;100705.80;1717975;83;21218;-54
2023/07/05 05:12:09;;;;;;;21.27;16.87;;;;;;;24.32;74.32;100711.55;1718242;83;21237;-53
2023/07/05 05:15:15;;;;;;;20.27;17.17;;;;;;;24.42;74.34;100701.87;1726119;82;21245;-55
2023/07/05 05:18:21;;;;;;;21.65;18.05;;;;;;;24.51;74.32;100704.55;1797767;80;22144;-54
2023/07/05 05:21:35;;;;;;;19.52;17.40;;;;;;;24.61;74.31;100704.66;1798149;78;21301;-55
2023/07/05 05:24:42;;;;;;;19.67;17.67;;;;;;;24.72;74.34;100709.90;1780804;78;21558;-54
2023/07/05 05:27:50;;;;;;;20.00;16.80;;;;;;;24.82;74.33;100710.01;1792274;79;21347;-54
2023/07/05 05:30:57;;;;;;;18.40;16.40;;;;;;;24.91;74.32;100706.48;1801669;79;21335;-55
2023/07/05 05:34:04;;;;;;;25.88;16.77;;;;;;;25.02;74.33;100706.89;1802127;79;21352;-53
2023/07/05 05:37:09;;;;;;;17.35;15.58;;;;;;;25.13;74.34;100705.63;1790503;79;21818;-53
2023/07/05 05:40:15;;;;;;;16.65;14.58;;;;;;;25.24;74.37;100706.88;1783676;79;21269;-55
2023/07/05 05:43:22;;;;;;;18.23;13.50;;;;;;;25.36;74.37;100708.13;1776780;79;21189;-55
2023/07/05 05:46:29;;;;;;;16.17;13.38;;;;;;;25.44;74.37;100708.52;1738009;81;21207;-55
2023/07/05 05:49:37;;;;;;;19.70;13.95;;;;;;;25.53;74.32;100711.70;1736292;82;21207;-56
2023/07/05 05:52:44;;;;;;;16.85;13.65;;;;;;;25.62;74.28;100708.69;1736104;82;21203;-55
2023/07/05 05:55:52;;;;;;;19.42;13.28;;;;;;;25.70;74.22;100709.06;1760167;81;21211;-55
2023/07/05 05:58:57;;;;;;;14.90;13.30;;;;;;;25.79;74.24;100698.17;1759353;80;21191;-54
2023/07/05 06:02:02;;;;;;;14.70;13.35;;;;;;;25.87;74.18;100700.48;1750473;81;21740;-56
2023/07/05 06:05:09;;;;;;;14.33;12.33;;;;;;;25.95;74.13;100701.39;1757421;80;21180;-54
2023/07/05 06:08:17;;;;;;;14.80;12.47;;;;;;;26.02;74.04;100701.48;1753869;80;21198;-55
2023/07/05 06:11:24;;;;;;;14.23;12.28;;;;;;;26.09;73.90;100701.25;1770727;80;21211;-55
2023/07/05 06:14:31;;;;;;;15.60;12.93;;;;;;;26.17;73.83;100695.13;1770016;80;21254;-54
2023/07/05 06:17:36;;;;;;;19.00;13.28;;;;;;;26.24;73.84;100690.97;1757701;80;21634;-54
2023/07/05 06:20:42;;;;;;;13.60;12.15;;;;;;;26.30;73.70;100688.50;1761778;80;21188;-54
2023/07/05 06:23:49;;;;;;;12.88;10.58;;;;;;;26.38;73.66;100695.02;1758158;81;21251;-54
2023/07/05 06:26:58;;;;;;;12.55;10.80;;;;;;;26.45;73.59;100687.17;1769153;80;21168;-55
2023/07/05 06:30:03;;;;;;;13.30;10.32;;;;;;;26.56;73.55;100689.46;1759447;80;21192;-54
2023/07/05 06:33:10;;;;;;;15.85;10.58;;;;;;;26.65;73.44;100689.28;1737970;81;21532;-54
2023/07/05 06:36:16;;;;;;;21.20;18.90;;;;;;;26.73;73.35;100690.16;1743855;81;21683;-55
2023/07/05 06:39:24;;;;;;;14.30;12.80;;;;;;;26.83;73.21;100690.77;1763764;80;21169;-55
2023/07/05 06:42:29;;;;;;;14.47;10.70;;;;;;;26.89;73.05;100683.49;1753495;81;21188;-53
2023/07/05 06:45:37;;;;;;;13.65;10.45;;;;;;;26.98;72.94;100682.38;1769826;78;21212;-53
2023/07/05 06:48:45;;;;;;;13.60;9.48;;;;;;;27.07;72.88;100680.71;1776077;79;21193;-54
2023/07/05 06:51:52;;;;;;;12.00;10.00;;;;;;;27.14;72.72;100683.56;1759976;80;21718;-54
2023/07/05 06:54:58;;;;;;;15.78;9.05;;;;;;;27.22;72.52;100683.02;1780823;79;21201;-54
2023/07/05 06:58:04;;;;;;;13.75;8.83;;;;;;;27.29;72.46;100686.42;1776726;78;21192;-57
2023/07/05 07:01:08;;;;;;;11.25;9.33;;;;;;;27.39;72.38;100685.61;1768700;81;21252;-55
2023/07/05 07:04:15;;;;;;;13.72;8.95;;;;;;;27.46;72.23;100691.23;1783785;79;21762;-54
2023/07/05 07:07:23;;;;;;;12.37;9.80;;;;;;;27.53;72.05;100689.00;1781973;79;21722;-55
2023/07/05 07:10:30;;;;;;;15.18;10.08;;;;;;;27.60;71.91;100686.77;1788444;79;21209;-54
2023/07/05 07:13:37;;;;;;;10.72;9.53;;;;;;;27.67;71.76;100683.10;1800444;79;21327;-54
2023/07/05 07:16:43;;;;;;;12.05;10.30;;;;;;;27.72;71.60;100679.44;1800340;79;21972;-53
2023/07/05 07:19:50;;;;;;;12.40;9.98;;;;;;;27.80;71.41;100682.55;1788203;79;21319;-54
2023/07/05 07:22:56;;;;;;;14.15;9.65;;;;;;;27.85;71.25;100683.96;1787681;79;21208;-54
2023/07/05 07:26:17;;;;;;;10.00;9.00;;;;;;;27.93;71.11;100683.12;1774923;79;21259;-54
2023/07/05 07:29:23;;;;;;;15.10;10.40;;;;;;;28.00;70.91;100683.70;1786439;79;21264;-54
2023/07/05 07:32:39;;;;;;;23.50;10.82;;;;;;;28.09;70.70;100683.39;1779733;78;21225;-55
2023/07/05 07:35:50;;;;;;;13.43;9.10;;;;;;;28.19;70.55;100680.58;1778634;79;22041;-53
2023/07/05 07:38:56;;;;;;;12.93;9.30;;;;;;;28.26;70.37;100675.50;1778855;79;21217;-55
2023/07/05 07:42:05;;;;;;;11.48;9.20;;;;;;;28.35;70.25;100670.97;1781408;78;21169;-55
2023/07/05 07:45:23;;;;;;;11.00;7.87;;;;;;;28.43;70.00;100682.48;1780479;79;21754;-54
2023/07/05 07:48:29;;;;;;;9.33;8.33;;;;;;;28.50;69.67;100683.06;1779022;78;21209;-54
2023/07/05 07:51:40;;;;;;;11.28;8.33;;;;;;;28.56;69.41;100683.32;1775161;79;21252;-54
2023/07/05 07:54:46;;;;;;;9.43;8.38;;;;;;;28.64;69.14;100686.95;1775016;79;21846;-55
2023/07/05 07:58:02;;;;;;;13.60;7.80;;;;;;;28.69;68.91;100678.49;1786229;79;21175;-55
2023/07/05 08:01:39;;;;;;;9.13;8.18;;;;;;;28.70;68.67;100677.94;1786180;79;21801;-56
2023/07/05 08:04:51;;;;;;;11.70;9.00;;;;;;;28.73;68.51;100680.17;1779472;79;21730;-53
2023/07/05 08:07:57;;;;;;;14.58;9.13;;;;;;;28.78;68.34;100681.57;1787092;78;21208;-52
2023/07/05 08:11:05;;;;;;;12.43;8.58;;;;;;;28.81;68.14;100681.81;1783743;79;21232;-54
2023/07/05 08:14:13;;;;;;;9.83;7.58;;;;;;;28.92;68.01;100679.81;1776470;79;21769;-52
2023/07/05 08:17:21;;;;;;;8.48;7.55;;;;;;;29.10;67.86;100682.84;1778081;79;21174;-47
2023/07/05 08:20:39;;;;;;;10.70;7.42;;;;;;;29.23;67.55;100678.53;1777552;79;21208;-57
2023/07/05 08:23:51;;;;;;;10.35;7.90;;;;;;;29.39;67.11;100674.48;1839357;76;23141;-56
2023/07/05 08:26:58;;;;;;;7.90;7.10;;;;;;;29.42;66.86;100669.66;1722842;82;21213;-56
2023/07/05 08:30:06;;;;;;;9.03;7.17;;;;;;;29.55;66.59;100667.59;1749876;79;21247;-55
2023/07/05 08:33:32;;;;;;;10.08;8.10;;;;;;;29.67;66.28;100664.44;1741436;80;21241;-53
2023/07/05 08:36:46;;;;;;;9.75;8.50;;;;;;;29.76;65.93;100656.45;1746449;81;21841;-54
2023/07/05 08:39:52;;;;;;;9.83;7.50;;;;;;;29.87;65.77;100653.81;1752696;79;21185;-55
2023/07/05 08:43:18;;;;;;;9.73;7.08;;;;;;;30.08;65.61;100661.52;1755767;81;21852;-54
2023/07/05 08:46:25;;;;;;;10.08;6.97;;;;;;;30.23;65.29;100653.77;1761659;81;21597;-54
2023/07/05 08:49:36;;;;;;;13.05;11.08;;;;;;;30.33;64.75;100653.66;1787049;79;21176;-54
2023/07/05 08:52:49;;;;;;;10.88;7.40;;;;;;;30.45;64.47;100649.83;1756770;80;21211;-55
2023/07/05 08:56:11;;;;;;;9.08;6.50;;;;;;;30.56;64.30;100654.22;1762404;81;21217;-55
2023/07/05 08:59:35;;;;;;;8.98;7.22;;;;;;;30.60;63.74;100655.29;1739133;81;21220;-54
2023/07/05 09:02:40;;;;;;;8.05;5.92;;;;;;;30.65;63.49;100655.23;1739657;81;21201;-54
2023/07/05 09:06:00;;;;;;;10.88;6.58;;;;;;;30.79;63.11;100663.02;1746536;81;21570;-54
2023/07/05 09:09:27;;;;;;;10.48;6.30;;;;;;;30.84;62.55;100658.72;1718339;83;21246;-55
2023/07/05 09:12:42;;;;;;;6.62;5.72;;;;;;;30.87;62.13;100659.52;1784014;79;21218;-53
2023/07/05 09:16:00;;;;;;;8.45;6.25;;;;;;;30.94;61.98;100652.34;1745001;82;21219;-53
2023/07/05 09:19:18;;;;;;;8.65;5.87;;;;;;;31.05;61.78;100661.55;1749476;81;21353;-54
2023/07/05 09:22:30;;;;;;;9.98;6.17;;;;;;;31.16;61.62;100662.50;1746450;80;21750;-53
2023/07/05 09:25:37;;;;;;;8.90;6.22;;;;;;;31.34;61.29;100653.78;1736759;81;21216;-53
2023/07/05 09:28:49;;;;;;;8.48;6.28;;;;;;;31.44;60.90;100653.63;1735590;82;21251;-54
2023/07/05 09:31:54;;;;;;;9.60;5.90;;;;;;;31.61;60.70;100668.07;1736665;81;21209;-54
2023/07/05 09:35:04;;;;;;;7.58;5.50;;;;;;;31.79;60.34;100660.95;1739351;81;21868;-54
2023/07/05 09:38:33;;;;;;;7.97;5.87;;;;;;;31.91;59.93;100653.42;1767586;80;21706;-54
2023/07/05 09:41:54;;;;;;;6.30;5.33;;;;;;;32.05;59.56;100651.47;1759520;79;21923;-54
2023/07/05 09:45:01;;;;;;;10.00;7.90;;;;;;;32.05;59.10;100657.73;1715373;82;21765;-54
2023/07/05 09:48:11;;;;;;;15.15;13.58;;;;;;;31.97;58.45;100655.02;1764678;80;21396;-53
2023/07/05 09:51:19;;;;;;;10.32;8.20;;;;;;;32.08;58.22;100648.01;1746176;81;21272;-51
2023/07/05 09:54:37;;;;;;;6.85;6.12;;;;;;;32.25;58.03;100655.36;1744187;81;21264;-53
2023/07/05 09:57:45;;;;;;;7.62;5.53;;;;;;;32.45;57.77;100645.62;1754171;81;21220;-52
2023/07/05 10:00:51;;;;;;;9.78;5.55;;;;;;;32.57;57.42;100645.38;1736165;82;21216;-54
2023/07/05 10:04:03;;;;;;;10.43;5.42;;;;;;;32.52;56.85;100638.41;1733919;82;21188;-57
2023/07/05 10:07:10;;;;;;;6.90;5.42;;;;;;;32.56;56.58;100645.12;1752903;81;21205;-54
2023/07/05 10:10:20;;;;;;;5.97;4.47;;;;;;;32.69;56.27;100640.59;1758131;81;21241;-53
2023/07/05 10:13:33;;;;;;;5.33;4.65;;;;;;;32.78;55.85;100639.55;1744654;81;21832;-55
2023/07/05 10:16:59;;;;;;;7.62;5.00;;;;;;;32.82;55.43;100634.94;1736170;82;21197;-55
2023/07/05 10:20:06;;;;;;;5.85;5.03;;;;;;;32.85;55.03;100628.62;1737648;79;21259;-55
2023/07/05 10:23:14;;;;;;;8.18;5.67;;;;;;;32.86;54.70;100633.70;1749953;81;21212;-55
2023/07/05 10:26:20;;;;;;;6.65;5.08;;;;;;;32.87;54.36;100627.70;1753551;81;21733;-53
2023/07/05 10:29:29;;;;;;;5.28;4.78;;;;;;;32.85;54.09;100620.68;1731791;81;21216;-54
2023/07/05 10:32:36;;;;;;;6.60;5.55;;;;;;;32.87;53.83;100632.56;1728299;81;21200;-54
2023/07/05 10:35:53;;;;;;;5.25;4.67;;;;;;;32.92;53.61;100632.48;1712760;83;21199;-52
2023/07/05 10:38:58;;;;;;;9.58;5.78;;;;;;;33.03;53.33;100639.01;1694406;83;21230;-52
2023/07/05 10:42:05;;;;;;;8.45;4.72;;;;;;;33.14;53.17;100633.96;1703506;83;21216;-53
2023/07/05 10:45:17;;;;;;;9.33;5.17;;;;;;;33.28;52.99;100637.00;1741731;81;21223;-53
2023/07/05 10:48:43;;;;;;;7.37;4.80;;;;;;;33.40;52.58;100636.47;1727352;82;21258;-53
2023/07/05 10:51:58;;;;;;;5.22;4.72;;;;;;;33.49;52.22;100640.82;1713746;82;21403;-55
2023/07/05 10:55:31;;;;;;;6.25;4.72;;;;;;;33.59;51.81;100637.70;1713227;82;21820;-54
2023/07/05 10:58:46;;;;;;;8.30;5.08;;;;;;;33.64;51.42;100631.91;1704254;82;21247;-54
2023/07/05 11:01:59;;;;;;;10.80;5.70;;;;;;;33.75;51.16;100621.96;1718015;81;21207;-53
2023/07/05 11:05:06;;;;;;;7.35;5.03;;;;;;;33.83;50.73;100625.44;1751159;82;21376;-54
2023/07/05 11:08:14;;;;;;;5.95;4.40;;;;;;;33.87;50.29;100618.78;1722038;82;21924;-57
2023/07/05 11:11:37;;;;;;;16.25;5.30;;;;;;;33.96;50.05;100619.73;1687262;83;21191;-54
2023/07/05 11:14:42;;;;;;;6.35;4.87;;;;;;;34.07;49.81;100613.18;1721945;82;21269;-54
2023/07/05 11:17:51;;;;;;;6.50;4.83;;;;;;;34.19;49.35;100617.09;1683273;83;21198;-57
2023/07/05 11:21:02;;;;;;;10.48;6.30;;;;;;;34.29;48.89;100605.44;1750718;80;21196;-55
2023/07/05 11:24:09;;;;;;;5.17;4.67;;;;;;;34.38;48.58;100602.62;1763067;80;21764;-56
2023/07/05 11:27:43;;;;;;;5.37;4.37;;;;;;;34.49;48.37;100606.30;1761890;81;21196;-54
2023/07/05 11:30:54;;;;;;;9.48;4.42;;;;;;;34.55;47.99;100607.01;1752395;81;21233;-53
2023/07/05 11:34:33;;;;;;;5.90;4.28;;;;;;;34.55;47.45;100612.09;1717350;81;21208;-55
2023/07/05 11:37:48;;;;;;;5.42;4.50;;;;;;;34.51;47.00;100609.66;1713985;82;21219;-53
2023/07/05 11:41:06;;;;;;;7.72;4.22;;;;;;;34.51;46.64;100601.70;1723320;82;21192;-54
2023/07/05 11:44:36;;;;;;;5.53;4.08;;;;;;;34.56;46.47;100604.41;1729373;81;21200;-54
2023/07/05 11:47:51;;;;;;;4.75;4.25;;;;;;;34.60;46.06;100601.17;1724870;81;21189;-55
2023/07/05 11:50:55;;;;;;;6.65;4.28;;;;;;;34.54;45.58;100601.89;1755465;80;21264;-55
2023/07/05 11:54:05;;;;;;;8.73;4.83;;;;;;;34.47;45.36;100607.81;1721473;81;21212;-55
2023/07/05 11:57:15;;;;;;;6.58;4.75;;;;;;;34.44;45.18;100600.76;1704693;81;21757;-55
2023/07/05 12:00:41;;;;;;;5.53;4.60;;;;;;;34.45;44.99;100593.08;1740579;81;21216;-56
2023/07/05 12:03:58;;;;;;;7.42;4.42;;;;;;;34.44;44.55;100594.25;1764139;81;22114;-56
2023/07/05 12:07:06;;;;;;;5.33;4.55;;;;;;;34.46;44.25;100597.58;1748096;81;21733;-56
2023/07/05 12:10:13;;;;;;;6.70;4.47;;;;;;;34.55;44.25;100595.63;1725042;82;21188;-57
2023/07/05 12:13:29;;;;;;;6.90;4.78;;;;;;;34.63;44.12;100586.28;1714468;82;21200;-57
2023/07/05 12:16:37;;;;;;;5.87;4.62;;;;;;;34.69;44.11;100588.66;1703032;83;21198;-57
2023/07/05 12:19:44;;;;;;;5.62;4.37;;;;;;;34.61;43.65;100595.73;1748102;81;21220;-57
2023/07/05 12:22:52;;;;;;;7.85;4.50;;;;;;;34.37;43.40;100591.00;1735370;81;21172;-57
2023/07/05 12:26:02;;;;;;;6.47;4.33;;;;;;;34.31;43.40;100600.28;1744769;79;21220;-55
2023/07/05 12:29:11;;;;;;;5.20;4.17;;;;;;;34.29;43.25;100591.80;1791733;79;21208;-56
2023/07/05 12:32:24;;;;;;;6.72;4.65;;;;;;;34.23;43.08;100590.28;1793747;79;21165;-56
2023/07/05 12:35:30;;;;;;;;;;;;;;;34.19;42.89;100592.11;1803980;79;21243;-58
2023/07/05 12:38:35;;;;;;;6.50;4.05;;;;;;;34.10;42.69;100589.78;1799382;79;20213;-56
2023/07/05 12:41:43;;;;;;;5.22;4.47;;;;;;;33.96;42.59;100591.31;1785376;79;21733;-57
2023/07/05 12:44:51;;;;;;;6.05;4.70;;;;;;;33.98;42.55;100589.56;1734020;81;21401;-56
2023/07/05 12:47:58;;;;;;;6.58;4.58;;;;;;;34.00;42.42;100578.72;1710566;82;21208;-55
2023/07/05 12:51:10;;;;;;;6.62;4.33;;;;;;;34.07;42.34;100573.39;1750971;79;21433;-56
2023/07/05 12:54:18;;;;;;;5.72;4.10;;;;;;;34.09;42.24;100576.75;1753976;81;21900;-55
2023/07/05 12:57:32;;;;;;;5.40;4.10;;;;;;;34.08;42.07;100576.48;1749388;81;21762;-55
2023/07/05 13:00:37;;;;;;;8.78;4.30;;;;;;;34.01;41.90;100574.70;1745569;79;21225;-56
2023/07/05 13:03:45;;;;;;;5.42;4.58;;;;;;;33.97;41.81;100567.98;1755314;80;21256;-54
2023/07/05 13:06:57;;;;;;;6.72;4.55;;;;;;;33.91;41.65;100573.55;1747996;81;21777;-55
2023/07/05 13:10:11;;;;;;;10.10;4.78;;;;;;;33.71;41.41;100568.39;1741002;81;21221;-56
2023/07/05 13:13:40;;;;;;;5.12;4.17;;;;;;;33.58;41.50;100567.31;1754604;81;21188;-55
2023/07/05 13:16:58;;;;;;;5.17;3.92;;;;;;;33.52;41.55;100563.50;1738905;81;21724;-54
2023/07/05 13:20:24;;;;;;;6.10;4.65;;;;;;;33.50;41.57;100562.98;1757587;79;21821;-54
2023/07/05 13:23:36;;;;;;;5.83;4.10;;;;;;;33.53;41.60;100558.06;1761873;81;21696;-55
2023/07/05 13:26:43;;;;;;;;;;;;;;;33.52;41.50;100560.09;1759739;79;21200;-55
2023/07/05 13:29:49;;;;;;;10.40;8.75;;;;;;;33.53;41.30;100555.23;1787511;79;20212;-54
2023/07/05 13:33:04;;;;;;;6.58;5.08;;;;;;;33.53;41.26;100551.81;1785372;79;21385;-56
2023/07/05 13:36:10;;;;;;;5.58;4.65;;;;;;;33.57;41.16;100556.28;1762629;80;21545;-55
2023/07/05 13:39:19;;;;;;;9.60;4.78;;;;;;;33.58;41.12;100551.69;1751199;80;21350;-55
2023/07/05 13:42:28;;;;;;;7.25;4.53;;;;;;;33.61;41.15;100550.19;1755286;79;21183;-56
2023/07/05 13:45:39;;;;;;;9.05;6.72;;;;;;;33.66;41.13;100548.06;1737859;81;21939;-55
2023/07/05 13:48:46;;;;;;;6.97;4.97;;;;;;;33.72;41.25;100548.18;1750047;81;21405;-55
2023/07/05 13:51:59;;;;;;;7.87;4.42;;;;;;;33.77;41.19;100542.37;1754680;81;21181;-55
